Terminal Aerodrome Forecast
Issued by NWS Blacksburg, VA

Home | Current Version | Previous Version | Text Only | Print | Product List | Glossary On
Versions: 1 2 3 4 5 6 7 8 9 10 11 12 13 14 15 16 17 18 19 20 21 22 23 24 25 26 27 28 29 30 31 32 33 34 35 36 37
000
FTUS41 KRNK 200523
TAFLYH
TAF
KLYH 200523Z 2006/2106 00000KT P6SM SCT250
     FM201500 21007G14KT P6SM FEW050 BKN250
     FM202200 VRB03KT P6SM BKN120
     FM210400 22003KT P6SM OVC120=

USA.gov is the U.S. government's official web portal to all federal, state and local government web resources and services.